Hickox, Pennsylvania
Current Conditions -  °F | °C
As of 7:56 AM on Monday 20 Oct 2014 (Local Time) from KELZ Reporting Station
Overcast Overcast  
Wind Chill: 36°   Ceiling: 10000
Heat Index: 41°   Visibility: 10mi
Dew Point: 32°   Wind: 7mph
Humidity: 70%   Direction: 220°SW
Pressure: 29.97"   Gusts: NA
Location:  41.915°N, 77.8855°W
Report Text: KELZ 201156Z AUTO 22006KT 10SM OVC100 05/00 A2997 RMK AO2 SLP164 T00500000 10050 20022 55007
Loading
Personal Weather Stations






























Interactive Weather Map
Tropical Storm Tracking
New forecast layout! Learn more

10-Day Weather Forecast

Advertisements
Track Severe Weather on mobile